createdAt,value
2019-05-12T00:00:24.928Z,77.60
2019-05-12T00:02:53.884Z,77.54
2019-05-12T00:05:22.481Z,77.75
2019-05-12T00:07:52.711Z,77.77
2019-05-12T00:10:23.016Z,78.05
2019-05-12T00:12:51.771Z,77.97
2019-05-12T00:15:20.709Z,77.92
2019-05-12T00:17:53.129Z,78.03
2019-05-12T00:20:22.060Z,77.76
2019-05-12T00:22:54.164Z,77.92
2019-05-12T00:25:24.403Z,77.94
2019-05-12T00:27:53.317Z,78.08
2019-05-12T00:30:38.782Z,77.84
2019-05-12T00:33:09.317Z,77.96
2019-05-12T00:35:38.082Z,77.80
2019-05-12T00:38:09.010Z,77.99
2019-05-12T00:40:39.109Z,78.22
2019-05-12T00:43:09.111Z,78.20
2019-05-12T00:45:38.953Z,78.36
2019-05-12T00:48:09.743Z,78.55
2019-05-12T00:50:38.813Z,78.60
2019-05-12T00:53:09.548Z,79.23
2019-05-12T00:55:40.235Z,79.45
2019-05-12T00:58:11.163Z,79.43
2019-05-12T01:00:41.534Z,79.42
2019-05-12T01:03:13.214Z,79.49
2019-05-12T01:05:41.774Z,79.85
2019-05-12T01:08:14.989Z,80.35
2019-05-12T01:10:43.724Z,80.15
2019-05-12T01:13:12.607Z,80.23
2019-05-12T01:15:41.592Z,80.17
2019-05-12T01:18:12.710Z,80.21
2019-05-12T01:20:41.449Z,80.54
2019-05-12T01:23:11.670Z,80.84
2019-05-12T01:25:40.560Z,80.94
2019-05-12T01:28:13.989Z,81.25
2019-05-12T01:30:43.251Z,81.65
2019-05-12T01:33:15.799Z,81.75
2019-05-12T01:35:44.361Z,81.80
2019-05-12T01:38:14.401Z,82.00
2019-05-12T01:40:47.496Z,81.72
2019-05-12T01:43:18.683Z,81.62
2019-05-12T01:45:48.259Z,81.84
2019-05-12T01:48:18.828Z,82.04
2019-05-12T01:50:47.807Z,81.90
2019-05-12T01:53:18.098Z,81.70
2019-05-12T01:55:48.667Z,81.97
2019-05-12T01:58:19.288Z,81.75
2019-05-12T02:00:50.151Z,81.71
2019-05-12T02:03:20.097Z,82.10
2019-05-12T02:05:51.713Z,82.16
2019-05-12T02:08:31.154Z,82.06
2019-05-12T02:11:21.138Z,82.30
2019-05-12T02:13:51.258Z,82.35
2019-05-12T02:16:20.963Z,82.55
2019-05-12T02:18:52.003Z,82.38
2019-05-12T02:21:20.550Z,81.96
2019-05-12T02:23:49.119Z,81.85
2019-05-12T02:26:18.947Z,82.51
2019-05-12T02:28:51.029Z,82.24
2019-05-12T02:31:20.913Z,82.42
2019-05-12T02:33:49.951Z,82.31
2019-05-12T02:36:18.675Z,82.49
2019-05-12T02:38:49.182Z,82.33
2019-05-12T02:41:19.633Z,82.08
2019-05-12T02:43:50.244Z,82.35
2019-05-12T02:46:26.588Z,82.50
2019-05-12T02:48:55.705Z,82.36
2019-05-12T02:51:27.247Z,82.45
2019-05-12T02:53:56.222Z,82.48
2019-05-12T02:56:31.669Z,82.70
2019-05-12T02:59:00.564Z,82.69
2019-05-12T03:01:34.747Z,82.82
2019-05-12T03:04:05.402Z,83.40
2019-05-12T03:06:35.741Z,83.35
2019-05-12T03:09:07.201Z,83.29
2019-05-12T03:11:37.947Z,83.36
2019-05-12T03:14:11.031Z,83.59
2019-05-12T03:16:39.604Z,84.39
2019-05-12T03:19:08.509Z,84.39
2019-05-12T03:21:38.720Z,84.39
2019-05-12T03:24:07.626Z,84.74
2019-05-12T03:26:36.586Z,84.60
2019-05-12T03:29:06.246Z,84.90
2019-05-12T03:31:39.849Z,84.95
2019-05-12T03:34:09.281Z,84.68
2019-05-12T03:36:41.937Z,84.94
2019-05-12T03:39:08.513Z,85.31
2019-05-12T03:41:38.862Z,85.30
2019-05-12T03:44:07.761Z,85.37
2019-05-12T03:46:36.309Z,85.14
2019-05-12T03:49:05.853Z,85.10
2019-05-12T03:51:35.140Z,85.02
2019-05-12T03:54:06.431Z,84.85
2019-05-12T03:56:37.227Z,84.51
2019-05-12T03:59:06.156Z,84.46
2019-05-12T04:01:36.423Z,84.41
2019-05-12T04:04:05.825Z,84.31
2019-05-12T04:06:35.028Z,84.09
2019-05-12T04:09:06.637Z,82.52
2019-05-12T04:11:35.815Z,81.16
2019-05-12T04:14:05.611Z,81.09
2019-05-12T04:16:36.269Z,81.19
2019-05-12T04:19:06.552Z,81.46
2019-05-12T04:21:37.387Z,81.90
2019-05-12T04:24:06.413Z,82.22
2019-05-12T04:26:37.520Z,82.25
2019-05-12T04:29:06.485Z,81.74
2019-05-12T04:31:37.430Z,80.96
2019-05-12T04:34:08.316Z,80.61
2019-05-12T04:36:37.299Z,80.72
2019-05-12T04:39:09.094Z,80.28
2019-05-12T04:41:37.809Z,80.98
2019-05-12T04:44:09.596Z,80.87
2019-05-12T04:46:38.151Z,80.25
2019-05-12T04:49:08.204Z,79.75
2019-05-12T04:51:36.932Z,79.39
2019-05-12T04:54:08.562Z,78.28
2019-05-12T04:56:40.615Z,78.09
2019-05-12T04:59:15.777Z,78.64
2019-05-12T05:01:45.331Z,78.65
2019-05-12T05:04:15.631Z,78.60
2019-05-12T05:06:44.933Z,78.57
2019-05-12T05:09:14.536Z,78.25
2019-05-12T05:11:45.053Z,78.31
2019-05-12T05:14:14.415Z,78.43
2019-05-12T05:16:45.140Z,78.05
2019-05-12T05:19:16.076Z,76.70
2019-05-12T05:21:44.682Z,76.28
2019-05-12T05:24:14.259Z,75.62
2019-05-12T05:26:43.645Z,75.37
2019-05-12T05:29:13.493Z,75.27
2019-05-12T05:31:44.146Z,73.44
2019-05-12T05:34:14.839Z,72.10
2019-05-12T05:36:44.935Z,70.87
2019-05-12T05:39:15.046Z,71.24
2019-05-12T05:41:46.482Z,71.87
2019-05-12T05:44:15.529Z,70.35
2019-05-12T05:46:49.908Z,70.45
2019-05-12T05:49:19.565Z,68.71
2019-05-12T05:51:54.204Z,69.64
2019-05-12T05:54:24.757Z,69.42
2019-05-12T05:56:58.062Z,68.73
2019-05-12T05:59:22.017Z,68.88
2019-05-12T06:01:52.526Z,67.73
2019-05-12T06:04:26.470Z,68.38
2019-05-12T06:06:56.141Z,69.07
2019-05-12T06:09:24.963Z,69.12
2019-05-12T06:11:59.176Z,68.83
2019-05-12T06:14:26.936Z,69.79
2019-05-12T06:16:55.941Z,68.94
2019-05-12T06:19:29.112Z,68.84
2019-05-12T06:22:00.903Z,69.03
2019-05-12T06:24:29.814Z,69.34
2019-05-12T06:27:00.942Z,68.43
2019-05-12T06:29:33.316Z,68.45
2019-05-12T06:32:06.226Z,67.67
2019-05-12T06:34:38.763Z,69.27
2019-05-12T06:37:11.816Z,68.19
2019-05-12T06:39:38.077Z,66.39
2019-05-12T06:42:14.222Z,67.22
2019-05-12T06:44:43.753Z,67.19
2019-05-12T06:47:14.344Z,67.58
2019-05-12T06:49:48.763Z,66.66
2019-05-12T06:52:17.603Z,65.94
2019-05-12T06:54:51.378Z,65.94
2019-05-12T06:57:24.887Z,65.11
2019-05-12T06:59:51.147Z,65.74
2019-05-12T07:02:24.315Z,65.74
2019-05-12T07:04:58.998Z,64.68
2019-05-12T07:07:27.599Z,62.96
2019-05-12T07:10:02.333Z,62.19
2019-05-12T07:12:32.799Z,62.72
2019-05-12T07:14:58.552Z,61.35
2019-05-12T07:17:45.495Z,61.35
2019-05-12T07:20:18.705Z,60.00
2019-05-12T07:22:48.598Z,60.66
2019-05-12T07:25:22.885Z,60.58
2019-05-12T07:27:55.381Z,60.42
2019-05-12T07:30:31.741Z,60.35
2019-05-12T07:33:00.939Z,60.03
2019-05-12T07:35:29.783Z,57.65
2019-05-12T07:38:00.299Z,57.71
2019-05-12T07:40:34.747Z,57.99
2019-05-12T07:43:03.799Z,58.48
2019-05-12T07:45:33.994Z,58.93
2019-05-12T07:48:09.960Z,58.83
2019-05-12T07:50:34.793Z,58.16
2019-05-12T07:53:04.460Z,56.91
2019-05-12T07:55:34.320Z,57.26
2019-05-12T07:58:14.194Z,57.83
2019-05-12T08:00:41.015Z,56.74
2019-05-12T08:03:20.891Z,57.07
2019-05-12T08:05:43.885Z,56.14
2019-05-12T08:08:14.480Z,57.13
2019-05-12T08:10:44.714Z,56.15
2019-05-12T08:13:18.485Z,55.29
2019-05-12T08:15:50.227Z,55.33
2019-05-12T08:18:17.818Z,55.14
2019-05-12T08:20:47.146Z,55.07
2019-05-12T08:23:17.761Z,54.24
2019-05-12T08:25:46.648Z,54.61
2019-05-12T08:28:19.100Z,54.74
2019-05-12T08:30:52.201Z,56.40
2019-05-12T08:33:18.413Z,54.65
2019-05-12T08:35:47.165Z,52.54
2019-05-12T08:38:17.853Z,53.32
2019-05-12T08:40:51.139Z,49.97
2019-05-12T08:43:19.595Z,48.64
2019-05-12T08:45:48.519Z,49.90
2019-05-12T08:48:21.853Z,53.35
2019-05-12T08:50:47.722Z,54.99
2019-05-12T08:53:20.710Z,53.97
2019-05-12T08:55:48.476Z,52.34
2019-05-12T08:58:30.316Z,52.99
2019-05-12T09:00:50.662Z,52.35
2019-05-12T09:03:20.550Z,50.53
2019-05-12T09:05:49.667Z,50.07
2019-05-12T09:08:18.524Z,49.43
2019-05-12T09:10:47.268Z,50.37
2019-05-12T09:13:17.380Z,49.83
2019-05-12T09:15:46.539Z,47.60
2019-05-12T09:18:15.085Z,49.25
2019-05-12T09:20:48.824Z,49.82
2019-05-12T09:23:15.719Z,50.56
2019-05-12T09:25:48.489Z,47.09
2019-05-12T09:28:17.480Z,47.67
2019-05-12T09:30:49.460Z,47.37
2019-05-12T09:33:21.489Z,47.74
2019-05-12T09:35:50.704Z,48.27
2019-05-12T09:38:24.108Z,49.06
2019-05-12T10:05:41.020Z,45.49
2019-05-12T10:08:07.755Z,45.58
2019-05-12T10:10:40.232Z,45.08
2019-05-12T10:13:08.917Z,44.30
2019-05-12T10:15:37.811Z,43.72
2019-05-12T10:18:11.055Z,44.74
2019-05-12T10:20:40.366Z,45.35
2019-05-12T10:23:10.218Z,44.16
2019-05-12T10:25:39.717Z,44.10
2019-05-12T10:28:12.762Z,43.14
2019-05-12T10:30:40.662Z,43.27
2019-05-12T10:33:09.537Z,43.30
2019-05-12T10:35:38.465Z,43.16
2019-05-12T10:38:10.621Z,42.19
2019-05-12T10:40:39.174Z,42.29
2019-05-12T10:43:09.320Z,41.26
2019-05-12T10:45:39.236Z,41.18
2019-05-12T10:48:07.958Z,39.16
2019-05-12T10:50:36.508Z,42.13
2019-05-12T10:53:09.976Z,42.59
2019-05-12T10:55:38.076Z,43.99
2019-05-12T10:58:08.306Z,42.86
2019-05-12T11:00:36.863Z,40.19
2019-05-12T11:03:12.183Z,40.33
2019-05-12T11:05:35.876Z,39.50
2019-05-12T11:08:10.802Z,42.05
2019-05-12T11:10:36.432Z,42.36
2019-05-12T11:13:08.431Z,43.34
2019-05-12T11:15:39.638Z,40.82
2019-05-12T11:18:20.723Z,42.26
2019-05-12T11:20:49.625Z,42.16
2019-05-12T11:23:19.856Z,43.53
2019-05-12T11:25:48.397Z,42.24
2019-05-12T11:28:21.728Z,42.39
2019-05-12T11:30:50.286Z,40.48
2019-05-12T11:33:18.955Z,40.83
2019-05-12T11:35:51.362Z,41.70
2019-05-12T11:38:28.473Z,40.66
2019-05-12T11:40:57.665Z,40.63
2019-05-12T11:43:29.576Z,39.71
2019-05-12T11:45:56.908Z,41.14
2019-05-12T11:48:27.336Z,40.86
2019-05-12T11:50:57.906Z,39.93
2019-05-12T11:53:30.632Z,39.93
2019-05-12T11:56:02.230Z,39.83
2019-05-12T11:58:33.526Z,40.03
2019-05-12T12:01:07.993Z,41.86
2019-05-12T12:03:33.990Z,40.83
2019-05-12T12:06:02.731Z,38.67
2019-05-12T12:08:37.147Z,39.58
2019-05-12T12:11:10.532Z,40.50
2019-05-12T12:13:36.272Z,39.85
2019-05-12T12:16:06.875Z,39.71
2019-05-12T12:18:37.767Z,39.65
2019-05-12T12:21:07.825Z,37.70
2019-05-12T12:23:40.920Z,37.33
2019-05-12T12:26:10.474Z,37.83
2019-05-12T12:28:39.225Z,37.21
2019-05-12T12:31:07.978Z,36.68
2019-05-12T12:33:40.533Z,35.95
2019-05-12T12:36:07.029Z,35.58
2019-05-12T12:38:56.503Z,37.45
2019-05-12T12:41:25.258Z,38.20
2019-05-12T12:43:54.228Z,36.84
2019-05-12T12:46:27.178Z,37.80
2019-05-12T12:49:00.163Z,40.05
2019-05-12T12:51:26.407Z,41.96
2019-05-12T12:53:55.186Z,40.65
2019-05-12T12:56:28.393Z,41.69
2019-05-12T12:58:55.475Z,40.08
2019-05-12T13:01:28.522Z,40.92
2019-05-12T13:03:59.387Z,41.77
2019-05-12T13:06:27.569Z,41.66
2019-05-12T13:08:56.166Z,44.26
2019-05-12T13:11:33.087Z,43.76
2019-05-12T13:13:55.682Z,44.87
2019-05-12T13:16:24.250Z,45.29
2019-05-12T13:18:55.071Z,44.96
2019-05-12T13:21:23.692Z,45.08
2019-05-12T13:23:53.894Z,43.41
2019-05-12T13:26:23.916Z,43.21
2019-05-12T13:28:54.911Z,41.54
2019-05-12T13:31:24.310Z,41.85
2019-05-12T13:33:54.794Z,42.10
2019-05-12T13:36:24.208Z,42.09
2019-05-12T13:38:53.372Z,41.71
2019-05-12T13:41:23.641Z,41.49
2019-05-12T13:43:56.141Z,42.18
2019-05-12T13:46:24.692Z,41.21
2019-05-12T13:48:59.670Z,41.58
2019-05-12T13:51:26.215Z,42.55
2019-05-12T13:53:55.196Z,42.18
2019-05-12T13:56:31.319Z,42.64
2019-05-12T13:58:54.590Z,44.04
2019-05-12T14:01:24.901Z,44.74
2019-05-12T14:03:53.946Z,45.34
2019-05-12T14:06:31.538Z,45.83
2019-05-12T14:08:55.919Z,46.97
2019-05-12T14:11:24.546Z,46.50
2019-05-12T14:13:53.688Z,47.27
2019-05-12T14:16:23.884Z,47.37
2019-05-12T14:18:57.038Z,47.27
2019-05-12T14:21:24.431Z,46.92
2019-05-12T14:23:53.295Z,47.92
2019-05-12T14:26:24.347Z,47.58
2019-05-12T14:28:54.862Z,45.80
2019-05-12T14:31:30.136Z,42.92
2019-05-12T14:33:54.427Z,43.60
2019-05-12T14:36:26.525Z,41.75
2019-05-12T14:38:53.626Z,41.69
2019-05-12T14:41:26.523Z,40.65
2019-05-12T14:44:01.396Z,41.56
2019-05-12T14:46:24.896Z,43.03
2019-05-12T14:48:55.035Z,44.77
2019-05-12T14:51:24.581Z,45.02
2019-05-12T14:53:53.669Z,43.17
2019-05-12T14:56:24.270Z,43.21
2019-05-12T14:58:56.444Z,43.96
2019-05-12T15:01:27.841Z,44.36
2019-05-12T15:03:54.167Z,45.15
2019-05-12T15:06:25.763Z,42.13
2019-05-12T15:08:54.945Z,40.12
2019-05-12T15:11:23.836Z,39.78
2019-05-12T15:13:54.116Z,38.35
2019-05-12T15:16:24.447Z,38.87
2019-05-12T15:18:54.138Z,38.62
2019-05-12T15:21:27.390Z,38.97
2019-05-12T15:23:56.781Z,38.81
2019-05-12T15:26:25.544Z,40.29
2019-05-12T15:28:56.909Z,40.48
2019-05-12T15:31:25.493Z,39.89
2019-05-12T15:33:54.050Z,38.93
2019-05-12T15:36:24.511Z,38.40
2019-05-12T15:38:55.816Z,38.68
2019-05-12T15:41:23.880Z,40.19
2019-05-12T15:43:53.665Z,39.54
2019-05-12T15:46:24.550Z,39.78
2019-05-12T15:48:53.612Z,40.62
2019-05-12T15:51:22.387Z,40.51
2019-05-12T15:53:51.131Z,40.68
2019-05-12T15:56:25.395Z,41.59
2019-05-12T15:58:50.667Z,43.17
2019-05-12T16:01:20.855Z,43.10
2019-05-12T16:03:49.421Z,44.25
2019-05-12T16:06:18.212Z,43.88
2019-05-12T16:08:46.945Z,48.13
2019-05-12T16:11:17.458Z,46.91
2019-05-12T16:13:54.769Z,48.56
2019-05-12T16:16:18.519Z,46.79
2019-05-12T16:18:50.625Z,46.70
2019-05-12T16:21:18.647Z,42.52
2019-05-12T16:23:48.908Z,42.90
2019-05-12T16:26:17.819Z,44.51
2019-05-12T16:28:46.358Z,46.19
2019-05-12T16:31:14.929Z,45.84
2019-05-12T16:33:43.760Z,45.97
2019-05-12T16:36:14.553Z,46.21
2019-05-12T16:38:44.544Z,45.63
2019-05-12T16:41:14.202Z,44.60
2019-05-12T16:43:44.167Z,44.48
2019-05-12T16:46:14.288Z,44.33
2019-05-12T16:48:48.379Z,43.91
2019-05-12T16:51:14.205Z,44.75
2019-05-12T16:53:43.611Z,44.99
2019-05-12T16:56:14.847Z,43.80
2019-05-12T16:58:43.934Z,43.90
2019-05-12T17:01:14.387Z,44.24
2019-05-12T17:03:46.666Z,44.28
2019-05-12T17:06:15.529Z,42.98
2019-05-12T17:08:44.273Z,42.94
2019-05-12T17:11:24.389Z,42.80
2019-05-12T17:13:47.360Z,42.45
2019-05-12T17:16:16.350Z,41.09
2019-05-12T17:18:45.309Z,41.26
2019-05-12T17:21:14.425Z,41.43
2019-05-12T17:23:44.487Z,41.45
2019-05-12T17:26:14.027Z,41.73
2019-05-12T17:28:44.376Z,41.66
2019-05-12T17:31:13.257Z,40.93
2019-05-12T17:33:43.757Z,41.45
2019-05-12T17:36:17.558Z,39.65
2019-05-12T17:38:44.123Z,39.14
2019-05-12T17:41:17.447Z,38.98
2019-05-12T17:43:52.096Z,39.58
2019-05-12T17:46:18.105Z,40.11
2019-05-12T17:48:46.228Z,40.56
2019-05-12T17:51:14.790Z,40.36
2019-05-12T17:53:43.746Z,39.71
2019-05-12T17:56:13.969Z,39.14
2019-05-12T17:58:46.997Z,39.02
2019-05-12T18:01:15.587Z,39.43
2019-05-12T18:03:48.804Z,38.79
2019-05-12T18:06:20.538Z,38.30
2019-05-12T18:08:50.308Z,37.75
2019-05-12T18:11:19.027Z,37.71
2019-05-12T18:13:47.610Z,36.97
2019-05-12T18:16:20.771Z,36.90
2019-05-12T18:18:46.870Z,37.45
2019-05-12T18:21:21.454Z,36.66
2019-05-12T18:23:46.236Z,37.01
2019-05-12T18:26:16.984Z,37.02
2019-05-12T18:28:45.553Z,38.10
2019-05-12T18:31:16.132Z,38.91
2019-05-12T18:33:52.093Z,39.87
2019-05-12T18:36:14.971Z,40.76
2019-05-12T18:38:45.217Z,41.03
2019-05-12T18:41:14.164Z,41.32
2019-05-12T18:43:43.484Z,41.25
2019-05-12T18:46:14.148Z,41.28
2019-05-12T18:48:44.398Z,42.27
2019-05-12T18:51:17.001Z,42.27
2019-05-12T18:53:43.941Z,41.18
2019-05-12T18:56:17.183Z,41.59
2019-05-12T18:58:45.002Z,41.86
2019-05-12T19:01:14.342Z,42.15
2019-05-12T19:03:49.676Z,42.53
2019-05-12T19:06:14.050Z,42.92
2019-05-12T19:08:42.835Z,43.62
2019-05-12T19:11:20.182Z,44.40
2019-05-12T19:13:51.633Z,45.21
2019-05-12T19:16:17.890Z,46.11
2019-05-12T19:18:48.145Z,48.30
2019-05-12T19:21:20.094Z,47.74
2019-05-12T19:23:48.689Z,48.09
2019-05-12T19:26:18.605Z,48.09
2019-05-12T19:28:52.986Z,48.68
2019-05-12T19:31:19.064Z,48.63
2019-05-12T19:33:56.655Z,49.60
2019-05-12T19:36:44.877Z,50.76
2019-05-12T19:39:11.222Z,50.88
2019-05-12T19:41:43.498Z,52.17
2019-05-12T19:44:13.491Z,53.32
2019-05-12T19:46:47.656Z,53.57
2019-05-12T19:49:14.060Z,54.37
2019-05-12T19:51:44.226Z,54.65
2019-05-12T19:54:19.050Z,53.47
2019-05-12T19:56:44.839Z,56.15
2019-05-12T19:59:16.752Z,56.16
2019-05-12T20:01:46.879Z,56.72
2019-05-12T20:04:29.723Z,55.53
2019-05-12T20:06:46.518Z,54.94
2019-05-12T20:09:15.245Z,55.02
2019-05-12T20:11:46.875Z,55.22
2019-05-12T20:14:21.363Z,55.65
2019-05-12T20:16:48.850Z,55.97
2019-05-12T20:19:19.941Z,55.50
2019-05-12T20:21:48.164Z,55.36
2019-05-12T20:24:17.690Z,55.95
2019-05-12T20:26:47.840Z,55.62
2019-05-12T20:29:18.059Z,55.63
2019-05-12T20:31:48.629Z,55.58
2019-05-12T20:34:18.278Z,55.76
2019-05-12T20:36:48.435Z,55.58
2019-05-12T20:39:21.638Z,54.56
2019-05-12T20:41:54.479Z,54.30
2019-05-12T20:44:21.127Z,53.68
2019-05-12T20:46:50.128Z,53.81
2019-05-12T20:49:24.150Z,53.97
2019-05-12T20:52:03.847Z,54.46
2019-05-12T20:54:25.999Z,54.60
2019-05-12T20:57:02.257Z,54.87
2019-05-12T20:59:28.765Z,55.53
2019-05-12T21:01:57.354Z,56.28
2019-05-12T21:04:31.122Z,56.70
2019-05-12T21:06:58.436Z,57.12
2019-05-12T21:09:26.997Z,57.64
2019-05-12T21:11:59.107Z,58.74
2019-05-12T21:14:27.859Z,58.56
2019-05-12T21:16:56.618Z,58.23
2019-05-12T21:19:29.252Z,58.17
2019-05-12T21:21:59.322Z,58.53
2019-05-12T21:24:34.372Z,58.68
2019-05-12T21:26:58.752Z,59.25
2019-05-12T21:29:29.911Z,59.43
2019-05-12T21:32:02.847Z,59.95
2019-05-12T21:34:35.173Z,59.56
2019-05-12T21:37:06.733Z,59.87
2019-05-12T21:39:40.213Z,60.43
2019-05-12T21:42:05.862Z,61.46
2019-05-12T21:44:34.748Z,62.23
2019-05-12T21:47:10.191Z,62.75
2019-05-12T21:49:37.437Z,63.25
2019-05-12T21:52:07.603Z,63.50
2019-05-12T21:54:39.572Z,64.20
2019-05-12T21:57:11.931Z,64.79
2019-05-12T21:59:40.791Z,65.11
2019-05-12T22:02:09.772Z,65.80
2019-05-12T22:04:45.044Z,66.31
2019-05-12T22:07:15.022Z,66.69
2019-05-12T22:09:46.896Z,67.11
2019-05-12T22:12:15.604Z,68.17
2019-05-12T22:14:46.254Z,68.29
2019-05-12T22:17:16.671Z,69.15
2019-05-12T22:19:46.584Z,69.91
2019-05-12T22:22:19.638Z,70.03
2019-05-12T22:24:47.114Z,70.21
2019-05-12T22:27:21.787Z,70.57
2019-05-12T22:29:48.065Z,70.91
2019-05-12T22:32:19.158Z,71.14
2019-05-12T22:34:47.692Z,71.72
2019-05-12T22:37:18.034Z,72.05
2019-05-12T22:39:49.362Z,72.26
2019-05-12T22:42:21.671Z,71.77
2019-05-12T22:44:52.987Z,71.95
2019-05-12T22:47:23.991Z,72.34
2019-05-12T22:49:56.902Z,72.24
2019-05-12T22:52:25.252Z,72.63
2019-05-12T22:54:55.449Z,72.58
2019-05-12T22:57:29.251Z,72.81
2019-05-12T22:59:57.565Z,72.74
2019-05-12T23:02:29.830Z,73.69
2019-05-12T23:04:57.118Z,73.45
2019-05-12T23:07:29.652Z,74.00
2019-05-12T23:10:00.585Z,74.46
2019-05-12T23:12:27.352Z,74.87
2019-05-12T23:15:02.992Z,75.03
2019-05-12T23:17:28.164Z,75.08
2019-05-12T23:19:56.903Z,75.19
2019-05-12T23:22:29.473Z,75.24
2019-05-12T23:24:57.615Z,75.56
2019-05-12T23:27:29.857Z,75.28
2019-05-12T23:30:01.587Z,75.56
2019-05-12T23:32:28.210Z,75.61
2019-05-12T23:35:00.224Z,75.85
2019-05-12T23:37:30.209Z,75.97
2019-05-12T23:39:59.387Z,76.42
2019-05-12T23:42:27.983Z,76.30
2019-05-12T23:44:58.222Z,76.55
2019-05-12T23:47:27.117Z,77.11
2019-05-12T23:49:55.704Z,77.01
2019-05-12T23:52:26.004Z,77.62
2019-05-12T23:54:56.125Z,77.46
2019-05-12T23:57:24.844Z,78.28
2019-05-12T23:59:55.071Z,78.46
